»·PEaware :: SWA1508 KSAN-KLAX

SWA1508 :: KSAN-KLAX

FLIGHT INFORMATION

Flight Status: Arrived
Operator:
Southwest Airlines
More flights by this operator :: More flights under this callsign
Pilot: Anonymous 14167 (14167)
Aircraft: BOEING 737-300
(B733)
More flights by this aircraft type
Origin: KSAN San Diego Intl-Lindbergh
United States
Destination: KLAX Los Angeles Intl
United States
More flights between these airports :: More routes between these airports
Route: +PEBLE6 SLI
File this flight plan on PilotEdge
Remarks:
Altitude:
(Current/Filed)
10,000ft
Speed:
(Current/Filed)
323kts
Departed: 12-Aug-17 05:14 PM
Arrived: 12-Aug-17 05:40 PM
Distance/Time
Traveled:
95nm/0:26
Distance/Time
To Go:
Arrived

Flight Plot

Page will automatically refresh every two minutes.


Map Options




Map Legend


Flown Route
Filed Route
Departure Airport
Arrival Airport
Navaid (VOR, NDB)
Fix

Horizontal Profiles

Position Reports

Time Latitude Longitude Heading Altitude Ground
Speed
12-Aug-17 16:45 32.734079 -117.201792 178 24ft 0kts
12-Aug-17 16:46 32.734079 -117.201792 178 24ft 0kts
12-Aug-17 16:47 32.734079 -117.201792 178 24ft 0kts
12-Aug-17 16:48 32.734079 -117.201792 178 24ft 0kts
12-Aug-17 16:49 32.734079 -117.201792 178 24ft 0kts
12-Aug-17 16:50 32.734079 -117.201792 178 24ft 0kts
12-Aug-17 16:51 32.734079 -117.201792 178 24ft 0kts
12-Aug-17 16:52 32.734079 -117.201792 178 24ft 0kts
12-Aug-17 16:53 32.734079 -117.201792 178 24ft 0kts
12-Aug-17 16:54 32.734079 -117.201792 178 24ft 0kts
12-Aug-17 16:55 32.734079 -117.201792 178 24ft 0kts
12-Aug-17 16:56 32.734079 -117.201792 178 24ft 0kts
12-Aug-17 16:57 32.734079 -117.201792 178 24ft 0kts
12-Aug-17 16:58 32.734079 -117.201792 178 24ft 0kts
12-Aug-17 16:59 32.734079 -117.201792 178 24ft 0kts
12-Aug-17 17:00 32.734079 -117.201792 178 24ft 0kts
12-Aug-17 17:01 32.734079 -117.201792 178 24ft 0kts
12-Aug-17 17:02 32.734079 -117.201792 178 24ft 0kts
12-Aug-17 17:03 32.734079 -117.201792 178 24ft 0kts
12-Aug-17 17:04 32.734079 -117.201792 178 24ft 0kts
12-Aug-17 17:05 32.734079 -117.201792 178 24ft 0kts
12-Aug-17 17:06 32.734078 -117.201792 178 24ft 0kts
12-Aug-17 17:07 32.734078 -117.201792 178 24ft 0kts
12-Aug-17 17:08 32.734078 -117.201792 178 24ft 0kts
12-Aug-17 17:09 32.734543 -117.201807 178 24ft 0kts
12-Aug-17 17:10 32.734887 -117.201817 178 24ft 0kts
12-Aug-17 17:11 32.734842 -117.201799 154 24ft 2kts
12-Aug-17 17:12 32.734313 -117.197049 105 24ft 21kts
12-Aug-17 17:13 32.732554 -117.189791 106 24ft 26kts
12-Aug-17 17:14 32.730825 -117.182672 106 24ft 16kts
12-Aug-17 17:15 32.729478 -117.176828 80 24ft 0kts
12-Aug-17 17:16 32.730108 -117.175507 283 24ft 0kts
12-Aug-17 17:17 32.734480 -117.193229 284 463ft 176kts
12-Aug-17 17:18 32.766020 -117.240933 304 4789ft 192kts
12-Aug-17 17:19 32.802819 -117.301152 304 7047ft 250kts
12-Aug-17 17:20 32.840027 -117.371835 292 9265ft 263kts
12-Aug-17 17:21 32.885712 -117.444507 326 9996ft 294kts
12-Aug-17 17:22 32.954855 -117.495349 327 10005ft 291kts
12-Aug-17 17:23 33.011936 -117.558595 303 10019ft 287kts
12-Aug-17 17:24 33.056737 -117.636777 303 10027ft 284kts
12-Aug-17 17:25 33.101743 -117.713097 306 10054ft 283kts
12-Aug-17 17:26 33.149850 -117.786631 306 10064ft 283kts
12-Aug-17 17:27 33.207006 -117.846717 342 10067ft 288kts
12-Aug-17 17:28 33.284188 -117.873294 341 10062ft 289kts
12-Aug-17 17:29 33.361551 -117.901098 341 9501ft 293kts
12-Aug-17 17:30 33.438622 -117.928995 341 8206ft 290kts
12-Aug-17 17:31 33.514988 -117.956707 341 7039ft 283kts
12-Aug-17 17:32 33.590426 -117.984141 341 7007ft 285kts
12-Aug-17 17:33 33.666308 -118.011784 341 7003ft 285kts
12-Aug-17 17:34 33.741879 -118.039366 341 7002ft 285kts
12-Aug-17 17:35 33.814449 -118.054375 1 6665ft 280kts
12-Aug-17 17:36 33.889847 -118.050643 350 5657ft 269kts
12-Aug-17 17:37 33.957021 -118.082803 304 4660ft 259kts
12-Aug-17 17:38 33.963074 -118.159942 250 3977ft 237kts
12-Aug-17 17:39 33.950043 -118.236325 260 3241ft 230kts
12-Aug-17 17:40 33.945379 -118.303883 262 1513ft 183kts
12-Aug-17 17:41 33.940239 -118.353414 263 809ft 129kts
12-Aug-17 17:42 33.936191 -118.393694 263 132ft 95kts
12-Aug-17 17:43 33.936612 -118.401072 261 132ft 13kts
12-Aug-17 17:44 33.938258 -118.405087 263 132ft 16kts
12-Aug-17 17:45 33.937897 -118.411375 326 132ft 21kts
12-Aug-17 17:46 33.943898 -118.412391 354 132ft 17kts
12-Aug-17 17:47 33.947429 -118.409714 82 132ft 23kts
12-Aug-17 17:48 33.948029 -118.403046 117 132ft 14kts
12-Aug-17 17:49 33.947386 -118.401823 112 132ft 0kts
12-Aug-17 17:50 33.947386 -118.401823 112 132ft 0kts
12-Aug-17 17:51 33.947386 -118.401823 112 132ft 0kts
12-Aug-17 17:52 33.947386 -118.401823 112 132ft 0kts
12-Aug-17 17:53 33.947386 -118.401823 112 132ft 0kts
12-Aug-17 17:54 33.947386 -118.401823 112 132ft 0kts
12-Aug-17 17:55 33.947386 -118.401823 112 132ft 0kts
12-Aug-17 17:56 33.947386 -118.401823 112 132ft 0kts
12-Aug-17 17:57 33.947386 -118.401823 112 132ft 0kts

Navigation Log

Ident Type
1. KSAN Airport
2. MELDY Fix
3. PEBLE Fix
4. SLI Navaid
5. KLAX Airport